< < Back
Terminal Aerodrome Forecast


Current Version              Previous Versions:   1  2  3  4  5  6  7  8  9  

Terminal Aerodrome Forecast

731
FTUS42 KGSP 231100
TAFHKY
TAF
KHKY 231125Z 2312/2412 33007KT P6SM FEW250
     FM240800 35003KT P6SM SKC=



Latest METAR

170
SAUS70 KWBC 232156
MTRHKY
METAR KHKY 232153Z 01008G16KT 10SM CLR 22/M06 A2987 RMK AO2 SLP097
T02221061


USA.gov is the U.S. government's official web portal to all federal, state and local government web resources and services.